Airfield :
LOGIN :

Register | Disclaimer

   EN    FR    IT 

 










Legend :    VFR   Marginal VFR   IFR   Intensive IFR   Very Intensive IFR
Visi :
Ceiling :
>= 8 km
>= 3000ft
5 to 8 km
1000 to 3000 ft
1500m to 5 km
500 to 1000 ft
800 to 1500m
200 to 500 ft
< 800m
< 200 ft
Symbols :   Thunderstorms  Fog  Heavy snow  Heavy precipitations  Wind > 20 kt
SIGMETs :     Misc.  Thunderstorms  Icing  Turbulence  Mountain Waves  Volcanic Ashes







- Airport Elevation : 325 ft
- IATA code : BES
- Download approach charts


LFRB - Brest

CURRENT METAR :
  • 240830Z AUTO 24014KT 9999 BKN017 BKN023 OVC029 19/15 Q1019 BECMG BKN013

EXPIRED METARs :
  • 240800Z AUTO 22013KT 9999 BKN016 BKN023 OVC032 18/15 Q1019 BECMG BKN013
  • 240730Z AUTO 23013KT 9999 SCT015 BKN021 BKN026 18/14 Q1019 BECMG BKN013
  • 240700Z AUTO 24011KT 9999 BKN014 17/14 Q1019 NOSIG
  • 240630Z AUTO 24012KT 9999 OVC012 17/15 Q1019 NOSIG
  • 240600Z AUTO 25011KT 9999 BKN010 BKN015 16/15 Q1019 NOSIG

TAF TAF LFRB
Valid from the 23 at 18:00 until the 25 at 00:00 UTC


231700Z 2318/2424 26015KT 9999 BKN025
BECMG 2403/2406 BKN006
TEMPO 2410/2418 25015G25KT 3000 -RADZ OVC003
BECMG 2419/2421 SCT020
ATIS : +33 2 98 32 02 71
No reported NOTAMs for that airfield.



MET'MAP, your aeronautical weather chart ! - Copyright ORBIFLY December 2007 - Disclaimer

ORBIFLY MET'MAP TEAM :

Programming & Development : Alexandra Zaïnal
Concept & Development : Baudouin d'Aumeries
Co-Development & Prog : Marc-Olivier Méhu
Technical & hardware support : Manuel Goepfert

Contact : metmap@orbifly.com




SOURCES & CREDITS :

   NOAA